sensor_id;sensor_type;location;lat;lon;timestamp;temperature;humidity
37310;DHT22;23195;47.744;7.358;2022-12-13T00:02:15;-4.20;99.90
37310;DHT22;23195;47.744;7.358;2022-12-13T00:04:59;-4.10;99.90
37310;DHT22;23195;47.744;7.358;2022-12-13T00:07:34;-3.60;99.90
37310;DHT22;23195;47.744;7.358;2022-12-13T00:10:08;-3.50;99.90
37310;DHT22;23195;47.744;7.358;2022-12-13T00:12:45;-3.60;99.90
37310;DHT22;23195;47.744;7.358;2022-12-13T00:15:23;-3.60;99.90
37310;DHT22;23195;47.744;7.358;2022-12-13T00:17:54;-3.60;99.90
37310;DHT22;23195;47.744;7.358;2022-12-13T00:20:35;-3.90;99.90
37310;DHT22;23195;47.744;7.358;2022-12-13T00:23:12;-3.60;99.90
37310;DHT22;23195;47.744;7.358;2022-12-13T00:25:43;-3.50;99.90
37310;DHT22;23195;47.744;7.358;2022-12-13T00:28:19;-3.50;99.90
37310;DHT22;23195;47.744;7.358;2022-12-13T00:31:02;-2.80;99.90
37310;DHT22;23195;47.744;7.358;2022-12-13T00:33:33;-3.70;99.90
37310;DHT22;23195;47.744;7.358;2022-12-13T00:36:12;-3.80;99.90
37310;DHT22;23195;47.744;7.358;2022-12-13T00:41:41;-3.80;99.90
37310;DHT22;23195;47.744;7.358;2022-12-13T00:44:10;-3.80;99.90
37310;DHT22;23195;47.744;7.358;2022-12-13T00:46:47;-3.80;99.90
37310;DHT22;23195;47.744;7.358;2022-12-13T00:49:24;-3.90;99.90
37310;DHT22;23195;47.744;7.358;2022-12-13T00:51:54;-3.90;99.90
37310;DHT22;23195;47.744;7.358;2022-12-13T00:54:33;-3.90;99.90
37310;DHT22;23195;47.744;7.358;2022-12-13T00:57:07;-3.80;99.90
37310;DHT22;23195;47.744;7.358;2022-12-13T00:59:43;-3.80;99.90
37310;DHT22;23195;47.744;7.358;2022-12-13T01:02:12;-3.80;99.90
37310;DHT22;23195;47.744;7.358;2022-12-13T01:04:47;-3.70;99.90
37310;DHT22;23195;47.744;7.358;2022-12-13T01:07:22;-4.10;99.90
37310;DHT22;23195;47.744;7.358;2022-12-13T01:10:14;-3.70;99.90
37310;DHT22;23195;47.744;7.358;2022-12-13T01:12:49;-3.80;99.90
37310;DHT22;23195;47.744;7.358;2022-12-13T01:15:23;-3.70;99.90
37310;DHT22;23195;47.744;7.358;2022-12-13T01:18:01;-4.40;99.90
37310;DHT22;23195;47.744;7.358;2022-12-13T01:20:39;-3.90;99.90
37310;DHT22;23195;47.744;7.358;2022-12-13T01:23:13;-3.90;99.90
37310;DHT22;23195;47.744;7.358;2022-12-13T01:26:08;-3.80;99.90
37310;DHT22;23195;47.744;7.358;2022-12-13T01:28:59;-4.00;99.90
37310;DHT22;23195;47.744;7.358;2022-12-13T01:31:25;-3.90;99.90
37310;DHT22;23195;47.744;7.358;2022-12-13T01:33:51;-3.90;99.90
37310;DHT22;23195;47.744;7.358;2022-12-13T01:36:19;-3.90;99.90
37310;DHT22;23195;47.744;7.358;2022-12-13T01:39:08;-3.90;99.90
37310;DHT22;23195;47.744;7.358;2022-12-13T01:41:59;-3.90;99.90
37310;DHT22;23195;47.744;7.358;2022-12-13T01:45:02;-3.90;99.90
37310;DHT22;23195;47.744;7.358;2022-12-13T01:47:45;-3.80;99.90
37310;DHT22;23195;47.744;7.358;2022-12-13T01:50:24;-4.00;99.90
37310;DHT22;23195;47.744;7.358;2022-12-13T01:52:57;-4.00;99.90
37310;DHT22;23195;47.744;7.358;2022-12-13T01:55:31;-4.00;99.90
37310;DHT22;23195;47.744;7.358;2022-12-13T01:58:05;-4.10;99.90
37310;DHT22;23195;47.744;7.358;2022-12-13T02:00:42;-4.00;99.90
37310;DHT22;23195;47.744;7.358;2022-12-13T02:03:08;-4.10;99.90
37310;DHT22;23195;47.744;7.358;2022-12-13T02:05:58;-4.00;99.90
37310;DHT22;23195;47.744;7.358;2022-12-13T02:08:39;-4.00;99.90
37310;DHT22;23195;47.744;7.358;2022-12-13T02:11:08;-5.40;99.90
37310;DHT22;23195;47.744;7.358;2022-12-13T02:13:43;-4.10;99.90
37310;DHT22;23195;47.744;7.358;2022-12-13T02:16:52;-4.20;99.90
37310;DHT22;23195;47.744;7.358;2022-12-13T02:25:25;-4.20;99.90
37310;DHT22;23195;47.744;7.358;2022-12-13T02:30:42;-4.30;99.90
37310;DHT22;23195;47.744;7.358;2022-12-13T02:33:32;-4.30;99.90
37310;DHT22;23195;47.744;7.358;2022-12-13T02:36:32;-4.30;99.90
37310;DHT22;23195;47.744;7.358;2022-12-13T02:42:19;-4.40;99.90
37310;DHT22;23195;47.744;7.358;2022-12-13T02:48:05;-4.50;99.90
37310;DHT22;23195;47.744;7.358;2022-12-13T02:51:02;-4.50;99.90
37310;DHT22;23195;47.744;7.358;2022-12-13T02:53:52;-4.60;99.90
37310;DHT22;23195;47.744;7.358;2022-12-13T02:56:20;-4.60;99.90
37310;DHT22;23195;47.744;7.358;2022-12-13T02:59:19;-4.60;99.90
37310;DHT22;23195;47.744;7.358;2022-12-13T03:02:23;-4.60;99.90
37310;DHT22;23195;47.744;7.358;2022-12-13T03:05:16;-5.00;99.90
37310;DHT22;23195;47.744;7.358;2022-12-13T03:11:02;-4.60;99.90
37310;DHT22;23195;47.744;7.358;2022-12-13T03:13:54;-4.60;99.90
37310;DHT22;23195;47.744;7.358;2022-12-13T03:16:28;-4.60;99.90
37310;DHT22;23195;47.744;7.358;2022-12-13T03:19:17;-4.70;99.90
37310;DHT22;23195;47.744;7.358;2022-12-13T03:22:07;-4.70;99.90
37310;DHT22;23195;47.744;7.358;2022-12-13T03:24:51;-5.40;99.90
37310;DHT22;23195;47.744;7.358;2022-12-13T03:27:29;-4.70;99.90
37310;DHT22;23195;47.744;7.358;2022-12-13T03:30:08;-6.60;99.90
37310;DHT22;23195;47.744;7.358;2022-12-13T03:32:46;-4.60;99.90
37310;DHT22;23195;47.744;7.358;2022-12-13T03:35:24;-4.60;99.90
37310;DHT22;23195;47.744;7.358;2022-12-13T03:38:03;-4.50;99.90
37310;DHT22;23195;47.744;7.358;2022-12-13T03:40:39;-4.50;99.90
37310;DHT22;23195;47.744;7.358;2022-12-13T03:43:15;-4.60;99.90
37310;DHT22;23195;47.744;7.358;2022-12-13T03:45:59;-4.90;99.90
37310;DHT22;23195;47.744;7.358;2022-12-13T03:48:38;-4.50;99.90
37310;DHT22;23195;47.744;7.358;2022-12-13T03:51:07;-4.60;99.90
37310;DHT22;23195;47.744;7.358;2022-12-13T03:53:43;-4.60;99.90
37310;DHT22;23195;47.744;7.358;2022-12-13T03:56:19;-4.60;99.90
37310;DHT22;23195;47.744;7.358;2022-12-13T03:58:59;-4.70;99.90
37310;DHT22;23195;47.744;7.358;2022-12-13T04:01:44;-4.80;99.90
37310;DHT22;23195;47.744;7.358;2022-12-13T04:04:12;-4.80;99.90
37310;DHT22;23195;47.744;7.358;2022-12-13T04:06:54;-4.70;99.90
37310;DHT22;23195;47.744;7.358;2022-12-13T04:09:39;-4.80;99.90
37310;DHT22;23195;47.744;7.358;2022-12-13T04:12:15;-5.10;99.90
37310;DHT22;23195;47.744;7.358;2022-12-13T04:14:59;-4.80;99.90
37310;DHT22;23195;47.744;7.358;2022-12-13T04:17:34;-4.80;99.90
37310;DHT22;23195;47.744;7.358;2022-12-13T04:23:07;-4.80;99.90
37310;DHT22;23195;47.744;7.358;2022-12-13T04:25:33;-4.90;99.90
37310;DHT22;23195;47.744;7.358;2022-12-13T04:28:16;-4.90;99.90
37310;DHT22;23195;47.744;7.358;2022-12-13T04:30:52;-4.90;99.90
37310;DHT22;23195;47.744;7.358;2022-12-13T04:33:24;-5.00;99.90
37310;DHT22;23195;47.744;7.358;2022-12-13T04:35:58;-5.20;99.90
37310;DHT22;23195;47.744;7.358;2022-12-13T04:38:41;-5.00;99.90
37310;DHT22;23195;47.744;7.358;2022-12-13T04:41:20;-5.10;99.90
37310;DHT22;23195;47.744;7.358;2022-12-13T04:43:56;-5.10;99.90
37310;DHT22;23195;47.744;7.358;2022-12-13T04:46:31;-5.10;99.90
37310;DHT22;23195;47.744;7.358;2022-12-13T04:49:17;-5.10;99.90
37310;DHT22;23195;47.744;7.358;2022-12-13T04:51:43;-5.70;99.90
37310;DHT22;23195;47.744;7.358;2022-12-13T04:54:19;-5.10;99.90
37310;DHT22;23195;47.744;7.358;2022-12-13T04:57:06;-5.20;99.90
37310;DHT22;23195;47.744;7.358;2022-12-13T04:59:35;-5.10;99.90
37310;DHT22;23195;47.744;7.358;2022-12-13T05:02:11;-5.20;99.90
37310;DHT22;23195;47.744;7.358;2022-12-13T05:04:46;-5.20;99.90
37310;DHT22;23195;47.744;7.358;2022-12-13T05:07:39;-5.20;99.90
37310;DHT22;23195;47.744;7.358;2022-12-13T05:10:22;-5.20;99.90
37310;DHT22;23195;47.744;7.358;2022-12-13T05:13:01;-5.20;99.90
37310;DHT22;23195;47.744;7.358;2022-12-13T05:15:29;-5.10;99.90
37310;DHT22;23195;47.744;7.358;2022-12-13T05:17:59;-5.10;99.90
37310;DHT22;23195;47.744;7.358;2022-12-13T05:20:43;-5.20;99.90
37310;DHT22;23195;47.744;7.358;2022-12-13T05:23:13;-5.20;99.90
37310;DHT22;23195;47.744;7.358;2022-12-13T05:25:49;-5.30;99.90
37310;DHT22;23195;47.744;7.358;2022-12-13T05:28:20;-5.30;99.90
37310;DHT22;23195;47.744;7.358;2022-12-13T05:30:57;-5.30;99.90
37310;DHT22;23195;47.744;7.358;2022-12-13T05:33:26;-5.40;99.90
37310;DHT22;23195;47.744;7.358;2022-12-13T05:36:02;-5.40;99.90
37310;DHT22;23195;47.744;7.358;2022-12-13T05:38:38;-5.30;99.90
37310;DHT22;23195;47.744;7.358;2022-12-13T05:41:13;-5.30;99.90
37310;DHT22;23195;47.744;7.358;2022-12-13T05:43:53;-5.30;99.90
37310;DHT22;23195;47.744;7.358;2022-12-13T05:46:29;-5.30;99.90
37310;DHT22;23195;47.744;7.358;2022-12-13T05:49:17;-5.20;99.90
37310;DHT22;23195;47.744;7.358;2022-12-13T05:51:59;-5.30;99.90
37310;DHT22;23195;47.744;7.358;2022-12-13T05:54:40;-5.20;99.90
37310;DHT22;23195;47.744;7.358;2022-12-13T06:00:09;-4.60;99.90
37310;DHT22;23195;47.744;7.358;2022-12-13T06:02:43;-5.20;99.90
37310;DHT22;23195;47.744;7.358;2022-12-13T06:05:11;-5.20;99.90
37310;DHT22;23195;47.744;7.358;2022-12-13T06:07:40;-5.30;99.90
37310;DHT22;23195;47.744;7.358;2022-12-13T06:10:11;-5.20;99.90
37310;DHT22;23195;47.744;7.358;2022-12-13T06:12:48;-5.20;99.90
37310;DHT22;23195;47.744;7.358;2022-12-13T06:15:27;-5.20;99.90
37310;DHT22;23195;47.744;7.358;2022-12-13T06:17:55;-5.70;99.90
37310;DHT22;23195;47.744;7.358;2022-12-13T06:20:31;-6.50;99.90
37310;DHT22;23195;47.744;7.358;2022-12-13T06:23:09;-4.40;99.90
37310;DHT22;23195;47.744;7.358;2022-12-13T06:25:37;-5.20;99.90
37310;DHT22;23195;47.744;7.358;2022-12-13T06:28:12;-5.20;99.90
37310;DHT22;23195;47.744;7.358;2022-12-13T06:30:40;-5.20;99.90
37310;DHT22;23195;47.744;7.358;2022-12-13T06:33:07;-5.90;99.90
37310;DHT22;23195;47.744;7.358;2022-12-13T06:35:40;-5.10;99.90
37310;DHT22;23195;47.744;7.358;2022-12-13T06:38:17;-5.10;99.90
37310;DHT22;23195;47.744;7.358;2022-12-13T06:41:05;-5.50;99.90
37310;DHT22;23195;47.744;7.358;2022-12-13T06:44:16;-5.20;99.90
37310;DHT22;23195;47.744;7.358;2022-12-13T06:46:53;-5.50;99.90
37310;DHT22;23195;47.744;7.358;2022-12-13T06:49:22;-5.10;99.90
37310;DHT22;23195;47.744;7.358;2022-12-13T06:51:51;-5.20;99.90
37310;DHT22;23195;47.744;7.358;2022-12-13T06:54:22;-5.10;99.90
37310;DHT22;23195;47.744;7.358;2022-12-13T06:56:59;-5.10;99.90
37310;DHT22;23195;47.744;7.358;2022-12-13T06:59:45;-5.10;99.90
37310;DHT22;23195;47.744;7.358;2022-12-13T07:02:28;-5.50;99.90
37310;DHT22;23195;47.744;7.358;2022-12-13T07:05:11;-5.00;99.90
37310;DHT22;23195;47.744;7.358;2022-12-13T07:08:21;-5.00;99.90
37310;DHT22;23195;47.744;7.358;2022-12-13T07:11:04;-5.00;99.90
37310;DHT22;23195;47.744;7.358;2022-12-13T07:13:46;-4.90;99.90
37310;DHT22;23195;47.744;7.358;2022-12-13T07:16:25;-5.00;99.90
37310;DHT22;23195;47.744;7.358;2022-12-13T07:19:29;-5.00;99.90
37310;DHT22;23195;47.744;7.358;2022-12-13T07:22:06;-5.00;99.90
37310;DHT22;23195;47.744;7.358;2022-12-13T07:25:03;-5.00;99.90
37310;DHT22;23195;47.744;7.358;2022-12-13T07:28:05;-5.00;99.90
37310;DHT22;23195;47.744;7.358;2022-12-13T07:31:09;-5.50;99.90
37310;DHT22;23195;47.744;7.358;2022-12-13T07:37:07;-4.90;99.90
37310;DHT22;23195;47.744;7.358;2022-12-13T07:39:44;-6.10;99.90
37310;DHT22;23195;47.744;7.358;2022-12-13T07:42:13;-4.90;99.90
37310;DHT22;23195;47.744;7.358;2022-12-13T07:44:44;-6.00;99.90
37310;DHT22;23195;47.744;7.358;2022-12-13T07:47:20;-5.10;99.90
37310;DHT22;23195;47.744;7.358;2022-12-13T07:49:50;-4.80;99.90
37310;DHT22;23195;47.744;7.358;2022-12-13T07:52:16;-4.80;99.90
37310;DHT22;23195;47.744;7.358;2022-12-13T07:54:58;-4.80;99.90
37310;DHT22;23195;47.744;7.358;2022-12-13T07:57:29;-4.70;99.90
37310;DHT22;23195;47.744;7.358;2022-12-13T07:59:55;-4.70;99.90
37310;DHT22;23195;47.744;7.358;2022-12-13T08:02:31;-4.60;99.90
37310;DHT22;23195;47.744;7.358;2022-12-13T08:05:33;-4.60;99.90
37310;DHT22;23195;47.744;7.358;2022-12-13T08:08:16;-4.50;99.90
37310;DHT22;23195;47.744;7.358;2022-12-13T08:10:48;-4.50;99.90
37310;DHT22;23195;47.744;7.358;2022-12-13T08:13:17;-4.40;99.90
37310;DHT22;23195;47.744;7.358;2022-12-13T08:15:48;-4.40;99.90
37310;DHT22;23195;47.744;7.358;2022-12-13T08:18:26;-4.30;99.90
37310;DHT22;23195;47.744;7.358;2022-12-13T08:21:06;-4.20;99.90
37310;DHT22;23195;47.744;7.358;2022-12-13T08:23:33;-4.20;99.90
37310;DHT22;23195;47.744;7.358;2022-12-13T08:26:07;-4.40;99.90
37310;DHT22;23195;47.744;7.358;2022-12-13T08:28:33;-4.10;99.90
37310;DHT22;23195;47.744;7.358;2022-12-13T08:31:11;-4.10;99.90
37310;DHT22;23195;47.744;7.358;2022-12-13T08:33:43;-4.00;99.90
37310;DHT22;23195;47.744;7.358;2022-12-13T08:36:15;-4.00;99.90
37310;DHT22;23195;47.744;7.358;2022-12-13T08:38:54;-4.00;99.90
37310;DHT22;23195;47.744;7.358;2022-12-13T08:41:31;-4.00;99.90
37310;DHT22;23195;47.744;7.358;2022-12-13T08:43:56;-4.50;99.90
37310;DHT22;23195;47.744;7.358;2022-12-13T08:46:42;-4.00;99.90
37310;DHT22;23195;47.744;7.358;2022-12-13T08:49:11;-4.30;99.90
37310;DHT22;23195;47.744;7.358;2022-12-13T08:51:39;-3.80;99.90
37310;DHT22;23195;47.744;7.358;2022-12-13T08:54:08;-3.60;99.90
37310;DHT22;23195;47.744;7.358;2022-12-13T08:56:33;-3.50;99.90
37310;DHT22;23195;47.744;7.358;2022-12-13T08:59:12;-3.50;99.90
37310;DHT22;23195;47.744;7.358;2022-12-13T09:01:44;-3.40;99.90
37310;DHT22;23195;47.744;7.358;2022-12-13T09:04:09;-3.40;99.90
37310;DHT22;23195;47.744;7.358;2022-12-13T09:06:51;-3.60;99.90
37310;DHT22;23195;47.744;7.358;2022-12-13T09:09:19;-3.80;99.90
37310;DHT22;23195;47.744;7.358;2022-12-13T09:12:00;-3.50;99.90
37310;DHT22;23195;47.744;7.358;2022-12-13T09:14:27;-3.60;99.90
37310;DHT22;23195;47.744;7.358;2022-12-13T09:16:55;-3.60;99.90
37310;DHT22;23195;47.744;7.358;2022-12-13T09:19:21;-3.60;99.90
37310;DHT22;23195;47.744;7.358;2022-12-13T09:22:07;-3.60;99.90
37310;DHT22;23195;47.744;7.358;2022-12-13T09:24:35;-3.50;99.90
37310;DHT22;23195;47.744;7.358;2022-12-13T09:27:07;-3.50;99.90
37310;DHT22;23195;47.744;7.358;2022-12-13T09:29:36;-2.60;99.90
37310;DHT22;23195;47.744;7.358;2022-12-13T09:32:05;-3.40;99.90
37310;DHT22;23195;47.744;7.358;2022-12-13T09:34:34;-3.30;99.90
37310;DHT22;23195;47.744;7.358;2022-12-13T09:37:00;-3.40;99.90
37310;DHT22;23195;47.744;7.358;2022-12-13T09:39:36;-3.30;99.90
37310;DHT22;23195;47.744;7.358;2022-12-13T09:42:23;-3.20;99.90
37310;DHT22;23195;47.744;7.358;2022-12-13T09:45:13;-3.20;99.90
37310;DHT22;23195;47.744;7.358;2022-12-13T09:47:43;-3.40;99.90
37310;DHT22;23195;47.744;7.358;2022-12-13T09:50:27;-3.00;99.90
37310;DHT22;23195;47.744;7.358;2022-12-13T09:53:06;-2.90;99.90
37310;DHT22;23195;47.744;7.358;2022-12-13T09:55:44;-2.70;99.90
37310;DHT22;23195;47.744;7.358;2022-12-13T09:58:48;-2.60;99.90
37310;DHT22;23195;47.744;7.358;2022-12-13T10:01:47;-2.60;99.90
37310;DHT22;23195;47.744;7.358;2022-12-13T10:04:32;-2.50;99.90
37310;DHT22;23195;47.744;7.358;2022-12-13T10:07:21;-2.40;99.90
37310;DHT22;23195;47.744;7.358;2022-12-13T10:10:11;-2.40;99.90
37310;DHT22;23195;47.744;7.358;2022-12-13T10:13:14;-1.50;99.90
37310;DHT22;23195;47.744;7.358;2022-12-13T10:16:17;-2.30;99.90
37310;DHT22;23195;47.744;7.358;2022-12-13T10:19:02;-2.60;99.90
37310;DHT22;23195;47.744;7.358;2022-12-13T10:21:36;-2.30;99.90
37310;DHT22;23195;47.744;7.358;2022-12-13T10:27:12;-2.40;99.90
37310;DHT22;23195;47.744;7.358;2022-12-13T10:30:18;-2.40;99.90
37310;DHT22;23195;47.744;7.358;2022-12-13T10:33:10;-2.90;99.90
37310;DHT22;23195;47.744;7.358;2022-12-13T10:36:13;-2.30;99.90
37310;DHT22;23195;47.744;7.358;2022-12-13T10:38:50;-1.90;99.90
37310;DHT22;23195;47.744;7.358;2022-12-13T10:41:33;-2.30;99.90
37310;DHT22;23195;47.744;7.358;2022-12-13T10:44:17;-2.40;99.90
37310;DHT22;23195;47.744;7.358;2022-12-13T10:49:38;-1.80;99.90
37310;DHT22;23195;47.744;7.358;2022-12-13T10:52:29;-1.90;99.90
37310;DHT22;23195;47.744;7.358;2022-12-13T10:55:36;-2.10;99.90
37310;DHT22;23195;47.744;7.358;2022-12-13T10:58:00;-1.90;99.90
37310;DHT22;23195;47.744;7.358;2022-12-13T11:00:44;-1.70;99.90
37310;DHT22;23195;47.744;7.358;2022-12-13T11:03:56;-1.70;99.90
37310;DHT22;23195;47.744;7.358;2022-12-13T11:06:44;-1.70;99.90
37310;DHT22;23195;47.744;7.358;2022-12-13T11:12:23;-1.50;99.90
37310;DHT22;23195;47.744;7.358;2022-12-13T11:18:18;-1.60;99.90
37310;DHT22;23195;47.744;7.358;2022-12-13T11:21:02;-1.20;99.90
37310;DHT22;23195;47.744;7.358;2022-12-13T11:23:50;-1.30;99.90
37310;DHT22;23195;47.744;7.358;2022-12-13T11:26:35;-1.20;99.90
37310;DHT22;23195;47.744;7.358;2022-12-13T11:29:37;-1.20;99.90
37310;DHT22;23195;47.744;7.358;2022-12-13T11:32:37;-1.00;99.90
37310;DHT22;23195;47.744;7.358;2022-12-13T11:35:35;-0.70;99.90
37310;DHT22;23195;47.744;7.358;2022-12-13T11:48:20;-0.70;99.90
37310;DHT22;23195;47.744;7.358;2022-12-13T11:50:51;-0.50;99.90
37310;DHT22;23195;47.744;7.358;2022-12-13T11:53:33;-0.50;99.90
37310;DHT22;23195;47.744;7.358;2022-12-13T11:59:08;-0.50;99.90
37310;DHT22;23195;47.744;7.358;2022-12-13T12:01:56;-0.50;99.90
37310;DHT22;23195;47.744;7.358;2022-12-13T12:04:44;-0.40;99.90
37310;DHT22;23195;47.744;7.358;2022-12-13T12:08:08;-0.30;99.90
37310;DHT22;23195;47.744;7.358;2022-12-13T12:10:40;-0.10;99.90
37310;DHT22;23195;47.744;7.358;2022-12-13T12:13:27;0.40;99.90
37310;DHT22;23195;47.744;7.358;2022-12-13T12:16:05;-0.10;99.90
37310;DHT22;23195;47.744;7.358;2022-12-13T12:18:34;-0.10;99.90
37310;DHT22;23195;47.744;7.358;2022-12-13T12:24:10;0.00;99.90
37310;DHT22;23195;47.744;7.358;2022-12-13T12:34:02;-0.70;99.90
37310;DHT22;23195;47.744;7.358;2022-12-13T12:36:48;-0.70;99.90
37310;DHT22;23195;47.744;7.358;2022-12-13T12:53:43;-0.80;99.90
37310;DHT22;23195;47.744;7.358;2022-12-13T12:56:51;-0.70;99.90
37310;DHT22;23195;47.744;7.358;2022-12-13T13:00:07;-0.70;99.90
37310;DHT22;23195;47.744;7.358;2022-12-13T13:05:41;-0.80;99.90
37310;DHT22;23195;47.744;7.358;2022-12-13T13:08:43;-0.80;99.90
37310;DHT22;23195;47.744;7.358;2022-12-13T13:11:14;-0.70;99.90
37310;DHT22;23195;47.744;7.358;2022-12-13T13:13:48;-0.80;99.90
37310;DHT22;23195;47.744;7.358;2022-12-13T13:21:50;-0.80;99.90
37310;DHT22;23195;47.744;7.358;2022-12-13T13:24:30;-0.40;99.90
37310;DHT22;23195;47.744;7.358;2022-12-13T13:29:37;-0.40;99.90
37310;DHT22;23195;47.744;7.358;2022-12-13T13:32:25;-0.50;99.90
37310;DHT22;23195;47.744;7.358;2022-12-13T13:38:02;-0.40;99.90
37310;DHT22;23195;47.744;7.358;2022-12-13T13:40:36;-0.10;99.90
37310;DHT22;23195;47.744;7.358;2022-12-13T13:43:27;-0.50;99.90
37310;DHT22;23195;47.744;7.358;2022-12-13T13:46:10;-0.40;99.90
37310;DHT22;23195;47.744;7.358;2022-12-13T13:49:02;-0.50;99.90
37310;DHT22;23195;47.744;7.358;2022-12-13T14:29:37;-0.70;99.90
37310;DHT22;23195;47.744;7.358;2022-12-13T14:32:30;-0.70;99.90
37310;DHT22;23195;47.744;7.358;2022-12-13T14:35:02;-0.70;99.90
37310;DHT22;23195;47.744;7.358;2022-12-13T14:37:37;-0.80;99.90
37310;DHT22;23195;47.744;7.358;2022-12-13T14:40:27;-0.90;99.90
37310;DHT22;23195;47.744;7.358;2022-12-13T14:43:00;-0.90;99.90
37310;DHT22;23195;47.744;7.358;2022-12-13T14:45:32;-0.90;99.90
37310;DHT22;23195;47.744;7.358;2022-12-13T14:48:10;-1.80;99.90
37310;DHT22;23195;47.744;7.358;2022-12-13T14:50:51;-1.70;99.90
37310;DHT22;23195;47.744;7.358;2022-12-13T14:53:36;-1.00;99.90
37310;DHT22;23195;47.744;7.358;2022-12-13T14:56:12;-1.10;99.90
37310;DHT22;23195;47.744;7.358;2022-12-13T14:59:09;-1.10;99.90
37310;DHT22;23195;47.744;7.358;2022-12-13T15:01:43;-1.20;99.90
37310;DHT22;23195;47.744;7.358;2022-12-13T15:04:30;-1.20;99.90
37310;DHT22;23195;47.744;7.358;2022-12-13T15:07:15;-1.10;99.90
37310;DHT22;23195;47.744;7.358;2022-12-13T15:09:48;-1.10;99.90
37310;DHT22;23195;47.744;7.358;2022-12-13T15:12:17;-1.10;99.90
37310;DHT22;23195;47.744;7.358;2022-12-13T15:14:52;-1.10;99.90
37310;DHT22;23195;47.744;7.358;2022-12-13T15:17:36;-1.20;99.90
37310;DHT22;23195;47.744;7.358;2022-12-13T15:20:21;-1.20;99.90
37310;DHT22;23195;47.744;7.358;2022-12-13T15:22:57;-1.30;99.90
37310;DHT22;23195;47.744;7.358;2022-12-13T15:25:34;-1.40;99.90
37310;DHT22;23195;47.744;7.358;2022-12-13T15:28:00;-1.90;99.90
37310;DHT22;23195;47.744;7.358;2022-12-13T15:30:29;-1.50;99.90
37310;DHT22;23195;47.744;7.358;2022-12-13T15:33:15;-1.60;99.90
37310;DHT22;23195;47.744;7.358;2022-12-13T15:35:49;-2.80;99.90
37310;DHT22;23195;47.744;7.358;2022-12-13T15:38:25;-1.70;99.90
37310;DHT22;23195;47.744;7.358;2022-12-13T15:40:53;-1.70;99.90
37310;DHT22;23195;47.744;7.358;2022-12-13T15:43:27;-1.80;99.90
37310;DHT22;23195;47.744;7.358;2022-12-13T15:46:02;-1.80;99.90
37310;DHT22;23195;47.744;7.358;2022-12-13T15:48:36;-2.20;99.90
37310;DHT22;23195;47.744;7.358;2022-12-13T15:51:10;-2.00;99.90
37310;DHT22;23195;47.744;7.358;2022-12-13T15:53:58;-1.80;99.90
37310;DHT22;23195;47.744;7.358;2022-12-13T15:56:35;-1.70;99.90
37310;DHT22;23195;47.744;7.358;2022-12-13T15:59:02;-1.70;99.90
37310;DHT22;23195;47.744;7.358;2022-12-13T16:01:43;-1.80;99.90
37310;DHT22;23195;47.744;7.358;2022-12-13T16:04:22;-1.80;99.90
37310;DHT22;23195;47.744;7.358;2022-12-13T16:06:50;-1.80;99.90
37310;DHT22;23195;47.744;7.358;2022-12-13T16:09:37;-1.90;99.90
37310;DHT22;23195;47.744;7.358;2022-12-13T16:12:25;-1.80;99.90
37310;DHT22;23195;47.744;7.358;2022-12-13T16:15:22;-1.70;99.90
37310;DHT22;23195;47.744;7.358;2022-12-13T16:17:54;-1.10;99.90
37310;DHT22;23195;47.744;7.358;2022-12-13T16:20:21;-1.70;99.90
37310;DHT22;23195;47.744;7.358;2022-12-13T16:22:59;-2.30;99.90
37310;DHT22;23195;47.744;7.358;2022-12-13T16:25:34;-1.90;99.90
37310;DHT22;23195;47.744;7.358;2022-12-13T16:28:02;-1.80;99.90
37310;DHT22;23195;47.744;7.358;2022-12-13T16:33:22;-1.80;99.90
37310;DHT22;23195;47.744;7.358;2022-12-13T16:35:52;-2.00;99.90
37310;DHT22;23195;47.744;7.358;2022-12-13T16:38:21;-2.00;99.90
37310;DHT22;23195;47.744;7.358;2022-12-13T16:40:53;-2.00;99.90
37310;DHT22;23195;47.744;7.358;2022-12-13T16:43:21;-2.00;99.90
37310;DHT22;23195;47.744;7.358;2022-12-13T16:45:52;-2.00;99.90
37310;DHT22;23195;47.744;7.358;2022-12-13T16:48:29;-2.10;99.90
37310;DHT22;23195;47.744;7.358;2022-12-13T16:51:07;-2.00;99.90
37310;DHT22;23195;47.744;7.358;2022-12-13T16:53:33;-2.00;99.90
37310;DHT22;23195;47.744;7.358;2022-12-13T16:56:02;-2.10;99.90
37310;DHT22;23195;47.744;7.358;2022-12-13T16:58:41;-2.10;99.90
37310;DHT22;23195;47.744;7.358;2022-12-13T17:01:38;-2.00;99.90
37310;DHT22;23195;47.744;7.358;2022-12-13T17:04:29;-2.10;99.90
37310;DHT22;23195;47.744;7.358;2022-12-13T17:07:05;-2.00;99.90
37310;DHT22;23195;47.744;7.358;2022-12-13T17:09:38;-2.10;99.90
37310;DHT22;23195;47.744;7.358;2022-12-13T17:12:10;-1.90;99.90
37310;DHT22;23195;47.744;7.358;2022-12-13T17:15:13;-1.90;99.90
37310;DHT22;23195;47.744;7.358;2022-12-13T17:17:51;-1.80;99.90
37310;DHT22;23195;47.744;7.358;2022-12-13T17:20:36;-1.80;99.90
37310;DHT22;23195;47.744;7.358;2022-12-13T17:23:45;-1.60;99.90
37310;DHT22;23195;47.744;7.358;2022-12-13T17:26:18;-1.60;99.90
37310;DHT22;23195;47.744;7.358;2022-12-13T17:28:46;-2.50;99.90
37310;DHT22;23195;47.744;7.358;2022-12-13T17:31:12;-1.80;99.90
37310;DHT22;23195;47.744;7.358;2022-12-13T17:33:43;-1.80;99.90
37310;DHT22;23195;47.744;7.358;2022-12-13T17:36:17;-1.80;99.90
37310;DHT22;23195;47.744;7.358;2022-12-13T17:38:53;-1.80;99.90
37310;DHT22;23195;47.744;7.358;2022-12-13T17:41:30;-1.80;99.90
37310;DHT22;23195;47.744;7.358;2022-12-13T17:44:01;-1.80;99.90
37310;DHT22;23195;47.744;7.358;2022-12-13T17:46:38;-1.80;99.90
37310;DHT22;23195;47.744;7.358;2022-12-13T17:49:15;-1.70;99.90
37310;DHT22;23195;47.744;7.358;2022-12-13T17:51:43;-1.70;99.90
37310;DHT22;23195;47.744;7.358;2022-12-13T17:54:23;-1.40;99.90
37310;DHT22;23195;47.744;7.358;2022-12-13T17:57:02;-1.70;99.90
37310;DHT22;23195;47.744;7.358;2022-12-13T17:59:28;-2.20;99.90
37310;DHT22;23195;47.744;7.358;2022-12-13T18:02:05;-1.60;99.90
37310;DHT22;23195;47.744;7.358;2022-12-13T18:04:52;-1.70;99.90
37310;DHT22;23195;47.744;7.358;2022-12-13T18:07:31;-2.30;99.90
37310;DHT22;23195;47.744;7.358;2022-12-13T18:10:04;-2.50;99.90
37310;DHT22;23195;47.744;7.358;2022-12-13T18:12:39;-1.90;99.90
37310;DHT22;23195;47.744;7.358;2022-12-13T18:15:23;-1.80;99.90
37310;DHT22;23195;47.744;7.358;2022-12-13T18:17:49;-1.90;99.90
37310;DHT22;23195;47.744;7.358;2022-12-13T18:20:30;-1.90;99.90
37310;DHT22;23195;47.744;7.358;2022-12-13T18:23:07;-2.00;99.90
37310;DHT22;23195;47.744;7.358;2022-12-13T18:25:41;-2.00;99.90
37310;DHT22;23195;47.744;7.358;2022-12-13T18:28:17;-1.90;99.90
37310;DHT22;23195;47.744;7.358;2022-12-13T18:30:43;-1.90;99.90
37310;DHT22;23195;47.744;7.358;2022-12-13T18:33:19;-1.90;99.90
37310;DHT22;23195;47.744;7.358;2022-12-13T18:35:48;-2.00;99.90
37310;DHT22;23195;47.744;7.358;2022-12-13T18:38:23;-1.90;99.90
37310;DHT22;23195;47.744;7.358;2022-12-13T18:41:10;-2.00;99.90
37310;DHT22;23195;47.744;7.358;2022-12-13T18:43:38;-2.00;99.90
37310;DHT22;23195;47.744;7.358;2022-12-13T18:46:14;-2.10;99.90
37310;DHT22;23195;47.744;7.358;2022-12-13T18:48:53;-2.00;99.90
37310;DHT22;23195;47.744;7.358;2022-12-13T18:51:19;-2.00;99.90
37310;DHT22;23195;47.744;7.358;2022-12-13T18:53:49;-2.00;99.90
37310;DHT22;23195;47.744;7.358;2022-12-13T18:56:19;-2.00;99.90
37310;DHT22;23195;47.744;7.358;2022-12-13T18:58:56;-2.10;99.90